sensor_id;sensor_type;location;lat;lon;timestamp;pressure;altitude;pressure_sealevel;temperature;humidity
16030;BME280;34770;49.272;11.070;2023-05-03T00:02:08;98464.13;;;7.59;79.36
16030;BME280;34770;49.272;11.070;2023-05-03T00:04:35;98518.09;;;7.86;79.50
16030;BME280;34770;49.272;11.070;2023-05-03T00:07:00;98513.53;;;7.86;79.01
16030;BME280;34770;49.272;11.070;2023-05-03T00:09:26;98512.03;;;7.82;78.54
16030;BME280;34770;49.272;11.070;2023-05-03T00:11:51;98511.47;;;7.77;79.25
16030;BME280;34770;49.272;11.070;2023-05-03T00:14:17;98517.16;;;7.73;79.12
16030;BME280;34770;49.272;11.070;2023-05-03T00:16:43;98513.69;;;7.71;78.91
16030;BME280;34770;49.272;11.070;2023-05-03T00:19:08;98518.59;;;7.78;79.55
16030;BME280;34770;49.272;11.070;2023-05-03T00:21:34;98524.03;;;7.64;79.24
16030;BME280;34770;49.272;11.070;2023-05-03T00:23:59;98515.94;;;7.64;79.44
16030;BME280;34770;49.272;11.070;2023-05-03T00:26:25;98518.97;;;7.72;79.49
16030;BME280;34770;49.272;11.070;2023-05-03T00:28:51;98508.50;;;7.68;79.61
16030;BME280;34770;49.272;11.070;2023-05-03T00:31:16;98519.09;;;7.71;79.66
16030;BME280;34770;49.272;11.070;2023-05-03T00:33:42;98515.16;;;7.62;79.28
16030;BME280;34770;49.272;11.070;2023-05-03T00:36:08;98534.81;;;7.64;79.28
16030;BME280;34770;49.272;11.070;2023-05-03T00:38:34;98513.34;;;7.63;79.92
16030;BME280;34770;49.272;11.070;2023-05-03T00:41:00;98513.75;;;7.56;79.18
16030;BME280;34770;49.272;11.070;2023-05-03T00:43:27;98464.34;;;7.15;79.22
16030;BME280;34770;49.272;11.070;2023-05-03T00:45:53;98511.44;;;7.50;79.32
16030;BME280;34770;49.272;11.070;2023-05-03T00:48:18;98463.16;;;7.19;79.16
16030;BME280;34770;49.272;11.070;2023-05-03T00:50:45;98497.13;;;7.36;79.32
16030;BME280;34770;49.272;11.070;2023-05-03T00:53:11;98508.56;;;7.39;79.30
16030;BME280;34770;49.272;11.070;2023-05-03T00:55:37;98506.75;;;7.40;79.34
16030;BME280;34770;49.272;11.070;2023-05-03T00:58:03;98500.59;;;7.38;79.24
16030;BME280;34770;49.272;11.070;2023-05-03T01:00:29;98491.25;;;7.43;79.11
16030;BME280;34770;49.272;11.070;2023-05-03T01:02:56;98495.84;;;7.41;78.55
16030;BME280;34770;49.272;11.070;2023-05-03T01:05:21;98500.19;;;7.44;78.29
16030;BME280;34770;49.272;11.070;2023-05-03T01:08:03;98498.34;;;7.44;78.44
16030;BME280;34770;49.272;11.070;2023-05-03T01:10:51;98499.13;;;7.46;77.99
16030;BME280;34770;49.272;11.070;2023-05-03T01:13:27;98502.22;;;7.40;78.24
16030;BME280;34770;49.272;11.070;2023-05-03T01:16:11;98503.13;;;7.27;78.39
16030;BME280;34770;49.272;11.070;2023-05-03T01:18:39;98500.44;;;7.13;78.65
16030;BME280;34770;49.272;11.070;2023-05-03T01:21:09;98448.22;;;6.87;79.18
16030;BME280;34770;49.272;11.070;2023-05-03T01:23:58;98499.25;;;7.31;79.19
16030;BME280;34770;49.272;11.070;2023-05-03T01:26:27;98494.94;;;7.28;78.63
16030;BME280;34770;49.272;11.070;2023-05-03T01:28:53;98498.31;;;7.18;78.51
16030;BME280;34770;49.272;11.070;2023-05-03T01:31:35;98487.75;;;7.00;78.57
16030;BME280;34770;49.272;11.070;2023-05-03T01:34:23;98492.00;;;6.90;79.16
16030;BME280;34770;49.272;11.070;2023-05-03T01:36:53;98487.00;;;6.84;78.03
16030;BME280;34770;49.272;11.070;2023-05-03T01:39:25;98491.31;;;6.87;79.30
16030;BME280;34770;49.272;11.070;2023-05-03T01:41:51;98476.09;;;6.86;79.31
16030;BME280;34770;49.272;11.070;2023-05-03T01:44:18;98489.38;;;6.89;79.23
16030;BME280;34770;49.272;11.070;2023-05-03T01:46:44;98494.47;;;6.93;79.42
16030;BME280;34770;49.272;11.070;2023-05-03T01:49:10;98440.41;;;6.68;78.61
16030;BME280;34770;49.272;11.070;2023-05-03T01:51:36;98401.41;;;6.47;78.48
16030;BME280;34770;49.272;11.070;2023-05-03T01:54:02;98473.59;;;6.83;78.40
16030;BME280;34770;49.272;11.070;2023-05-03T01:56:28;98488.63;;;6.87;78.11
16030;BME280;34770;49.272;11.070;2023-05-03T01:58:54;98489.56;;;6.86;77.42
16030;BME280;34770;49.272;11.070;2023-05-03T02:01:19;98485.94;;;6.87;78.27
16030;BME280;34770;49.272;11.070;2023-05-03T02:03:44;98401.59;;;6.30;78.13
16030;BME280;34770;49.272;11.070;2023-05-03T02:06:10;98489.19;;;6.78;77.82
16030;BME280;34770;49.272;11.070;2023-05-03T02:08:35;98498.41;;;6.74;77.60
16030;BME280;34770;49.272;11.070;2023-05-03T02:11:01;98499.41;;;6.73;77.49
16030;BME280;34770;49.272;11.070;2023-05-03T02:13:26;98509.41;;;6.71;77.72
16030;BME280;34770;49.272;11.070;2023-05-03T02:15:51;98489.00;;;6.67;77.30
16030;BME280;34770;49.272;11.070;2023-05-03T02:18:17;98502.66;;;6.64;77.63
16030;BME280;34770;49.272;11.070;2023-05-03T02:20:44;98495.72;;;6.46;77.31
16030;BME280;34770;49.272;11.070;2023-05-03T02:23:10;98490.13;;;6.49;77.56
16030;BME280;34770;49.272;11.070;2023-05-03T02:25:35;98497.03;;;6.38;77.76
16030;BME280;34770;49.272;11.070;2023-05-03T02:28:00;98503.28;;;6.39;77.66
16030;BME280;34770;49.272;11.070;2023-05-03T02:30:26;98503.66;;;6.33;77.63
16030;BME280;34770;49.272;11.070;2023-05-03T02:32:51;98500.47;;;6.26;77.66
16030;BME280;34770;49.272;11.070;2023-05-03T02:35:16;98499.50;;;6.27;77.96
16030;BME280;34770;49.272;11.070;2023-05-03T02:37:42;98508.28;;;6.31;77.57
16030;BME280;34770;49.272;11.070;2023-05-03T02:40:08;98477.84;;;6.15;77.37
16030;BME280;34770;49.272;11.070;2023-05-03T02:42:36;98494.78;;;6.17;77.49
16030;BME280;34770;49.272;11.070;2023-05-03T02:45:01;98498.59;;;6.13;77.46
16030;BME280;34770;49.272;11.070;2023-05-03T02:47:27;98498.97;;;6.07;77.30
16030;BME280;34770;49.272;11.070;2023-05-03T02:49:52;98504.28;;;6.08;77.30
16030;BME280;34770;49.272;11.070;2023-05-03T02:52:18;98505.91;;;6.11;77.35
16030;BME280;34770;49.272;11.070;2023-05-03T02:54:43;98502.88;;;6.01;77.14
16030;BME280;34770;49.272;11.070;2023-05-03T02:57:10;98507.78;;;5.95;77.13
16030;BME280;34770;49.272;11.070;2023-05-03T02:59:36;98499.53;;;5.82;76.53
16030;BME280;34770;49.272;11.070;2023-05-03T03:02:01;98449.81;;;5.44;78.03
16030;BME280;34770;49.272;11.070;2023-05-03T03:04:26;98454.44;;;5.42;77.57
16030;BME280;34770;49.272;11.070;2023-05-03T03:06:52;98502.91;;;5.70;78.38
16030;BME280;34770;49.272;11.070;2023-05-03T03:09:18;98501.97;;;5.71;78.41
16030;BME280;34770;49.272;11.070;2023-05-03T03:11:43;98454.59;;;5.39;78.78
16030;BME280;34770;49.272;11.070;2023-05-03T03:14:09;98501.03;;;5.72;78.79
16030;BME280;34770;49.272;11.070;2023-05-03T03:16:34;98500.16;;;5.71;78.63
16030;BME280;34770;49.272;11.070;2023-05-03T03:19:00;98499.22;;;5.57;78.31
16030;BME280;34770;49.272;11.070;2023-05-03T03:21:25;98470.19;;;5.32;78.24
16030;BME280;34770;49.272;11.070;2023-05-03T03:23:53;98505.09;;;5.48;79.24
16030;BME280;34770;49.272;11.070;2023-05-03T03:26:18;98511.88;;;5.55;79.19
16030;BME280;34770;49.272;11.070;2023-05-03T03:28:44;98511.53;;;5.45;78.98
16030;BME280;34770;49.272;11.070;2023-05-03T03:31:09;98505.81;;;5.51;79.17
16030;BME280;34770;49.272;11.070;2023-05-03T03:33:34;98512.56;;;5.43;78.85
16030;BME280;34770;49.272;11.070;2023-05-03T03:36:00;98502.50;;;5.31;78.92
16030;BME280;34770;49.272;11.070;2023-05-03T03:38:25;98462.06;;;5.02;79.05
16030;BME280;34770;49.272;11.070;2023-05-03T03:40:51;98502.88;;;5.40;79.26
16030;BME280;34770;49.272;11.070;2023-05-03T03:43:16;98498.38;;;5.41;79.51
16030;BME280;34770;49.272;11.070;2023-05-03T03:45:42;98511.81;;;5.41;78.70
16030;BME280;34770;49.272;11.070;2023-05-03T03:48:07;98513.34;;;5.45;78.76
16030;BME280;34770;49.272;11.070;2023-05-03T03:50:33;98454.28;;;5.13;78.53
16030;BME280;34770;49.272;11.070;2023-05-03T03:52:58;98515.63;;;5.52;78.45
16030;BME280;34770;49.272;11.070;2023-05-03T03:55:23;98510.31;;;5.51;78.17
16030;BME280;34770;49.272;11.070;2023-05-03T03:57:49;98522.03;;;5.50;77.98
16030;BME280;34770;49.272;11.070;2023-05-03T04:00:14;98523.41;;;5.41;77.93
16030;BME280;34770;49.272;11.070;2023-05-03T04:02:40;98524.03;;;5.46;77.91
16030;BME280;34770;49.272;11.070;2023-05-03T04:05:06;98525.25;;;5.41;77.86
16030;BME280;34770;49.272;11.070;2023-05-03T04:07:32;98524.47;;;5.39;78.04
16030;BME280;34770;49.272;11.070;2023-05-03T04:09:57;98529.75;;;5.40;78.34
16030;BME280;34770;49.272;11.070;2023-05-03T04:12:23;98535.22;;;5.39;77.67
16030;BME280;34770;49.272;11.070;2023-05-03T04:14:48;98544.03;;;5.41;77.48
16030;BME280;34770;49.272;11.070;2023-05-03T04:17:14;98530.84;;;5.36;77.90
16030;BME280;34770;49.272;11.070;2023-05-03T04:19:39;98536.16;;;5.38;77.36
16030;BME280;34770;49.272;11.070;2023-05-03T04:22:05;98538.25;;;5.33;77.33
16030;BME280;34770;49.272;11.070;2023-05-03T04:24:30;98543.69;;;5.31;76.87
16030;BME280;34770;49.272;11.070;2023-05-03T04:26:55;98539.44;;;5.27;77.28
16030;BME280;34770;49.272;11.070;2023-05-03T04:29:23;98541.34;;;5.25;77.71
16030;BME280;34770;49.272;11.070;2023-05-03T04:31:48;98545.22;;;5.19;77.69
16030;BME280;34770;49.272;11.070;2023-05-03T04:34:13;98555.31;;;5.32;78.26
16030;BME280;34770;49.272;11.070;2023-05-03T04:36:40;98550.69;;;5.34;78.11
16030;BME280;34770;49.272;11.070;2023-05-03T04:39:10;98547.47;;;5.11;77.63
16030;BME280;34770;49.272;11.070;2023-05-03T04:41:37;98546.44;;;5.14;78.31
16030;BME280;34770;49.272;11.070;2023-05-03T04:44:04;98555.13;;;5.35;78.69
16030;BME280;34770;49.272;11.070;2023-05-03T04:46:29;98559.28;;;5.40;78.75
16030;BME280;34770;49.272;11.070;2023-05-03T04:48:55;98541.44;;;5.39;78.58
16030;BME280;34770;49.272;11.070;2023-05-03T04:51:21;98555.31;;;5.47;78.47
16030;BME280;34770;49.272;11.070;2023-05-03T04:53:47;98560.25;;;5.55;78.97
16030;BME280;34770;49.272;11.070;2023-05-03T04:56:13;98566.84;;;5.65;79.06
16030;BME280;34770;49.272;11.070;2023-05-03T04:58:39;98564.56;;;5.73;79.06
16030;BME280;34770;49.272;11.070;2023-05-03T05:01:04;98570.66;;;5.76;79.02
16030;BME280;34770;49.272;11.070;2023-05-03T05:03:31;98583.50;;;5.87;79.05
16030;BME280;34770;49.272;11.070;2023-05-03T05:05:57;98577.84;;;5.76;79.19
16030;BME280;34770;49.272;11.070;2023-05-03T05:08:22;98576.91;;;5.93;79.60
16030;BME280;34770;49.272;11.070;2023-05-03T05:10:48;98587.75;;;6.07;79.54
16030;BME280;34770;49.272;11.070;2023-05-03T05:13:13;98594.06;;;6.21;79.55
16030;BME280;34770;49.272;11.070;2023-05-03T05:15:38;98592.38;;;6.34;79.60
16030;BME280;34770;49.272;11.070;2023-05-03T05:18:04;98550.47;;;6.30;79.93
16030;BME280;34770;49.272;11.070;2023-05-03T05:20:29;98595.66;;;6.69;79.52
16030;BME280;34770;49.272;11.070;2023-05-03T05:22:56;98590.19;;;6.85;79.52
16030;BME280;34770;49.272;11.070;2023-05-03T05:25:21;98559.59;;;6.72;78.90
16030;BME280;34770;49.272;11.070;2023-05-03T05:27:47;98578.59;;;6.98;78.58
16030;BME280;34770;49.272;11.070;2023-05-03T05:30:12;98596.41;;;7.15;78.29
16030;BME280;34770;49.272;11.070;2023-05-03T05:32:38;98593.59;;;7.17;78.58
16030;BME280;34770;49.272;11.070;2023-05-03T05:35:03;98601.97;;;7.40;78.22
16030;BME280;34770;49.272;11.070;2023-05-03T05:37:29;98599.66;;;7.48;77.24
16030;BME280;34770;49.272;11.070;2023-05-03T05:39:55;98599.25;;;7.69;77.32
16030;BME280;34770;49.272;11.070;2023-05-03T05:42:20;98607.19;;;7.98;77.59
16030;BME280;34770;49.272;11.070;2023-05-03T05:44:46;98604.41;;;8.00;77.06
16030;BME280;34770;49.272;11.070;2023-05-03T05:47:11;98594.00;;;8.21;75.91
16030;BME280;34770;49.272;11.070;2023-05-03T05:49:37;98618.75;;;8.54;75.89
16030;BME280;34770;49.272;11.070;2023-05-03T05:52:02;98618.69;;;8.68;75.11
16030;BME280;34770;49.272;11.070;2023-05-03T05:54:28;98616.19;;;8.65;73.82
16030;BME280;34770;49.272;11.070;2023-05-03T05:56:53;98620.91;;;8.76;73.47
16030;BME280;34770;49.272;11.070;2023-05-03T05:59:18;98603.03;;;8.60;72.72
16030;BME280;34770;49.272;11.070;2023-05-03T06:01:44;98591.81;;;8.66;72.54
16030;BME280;34770;49.272;11.070;2023-05-03T06:04:13;98621.19;;;8.58;71.85
16030;BME280;34770;49.272;11.070;2023-05-03T06:06:39;98619.16;;;8.74;71.81
16030;BME280;34770;49.272;11.070;2023-05-03T06:09:04;98597.03;;;8.95;72.23
16030;BME280;34770;49.272;11.070;2023-05-03T06:11:30;98616.41;;;9.14;71.17
16030;BME280;34770;49.272;11.070;2023-05-03T06:13:56;98604.63;;;9.15;70.62
16030;BME280;34770;49.272;11.070;2023-05-03T06:16:22;98625.81;;;9.33;70.63
16030;BME280;34770;49.272;11.070;2023-05-03T06:18:48;98613.69;;;9.39;70.25
16030;BME280;34770;49.272;11.070;2023-05-03T06:21:14;98617.78;;;9.70;69.59
16030;BME280;34770;49.272;11.070;2023-05-03T06:23:39;98617.78;;;9.70;68.97
16030;BME280;34770;49.272;11.070;2023-05-03T06:26:05;98615.81;;;9.84;68.77
16030;BME280;34770;49.272;11.070;2023-05-03T06:28:30;98613.41;;;9.93;68.72
16030;BME280;34770;49.272;11.070;2023-05-03T06:30:56;98620.19;;;9.98;67.73
16030;BME280;34770;49.272;11.070;2023-05-03T06:33:21;98605.38;;;9.91;66.90
16030;BME280;34770;49.272;11.070;2023-05-03T06:35:46;98592.47;;;9.95;66.92
16030;BME280;34770;49.272;11.070;2023-05-03T06:38:12;98611.19;;;10.10;66.38
16030;BME280;34770;49.272;11.070;2023-05-03T06:40:37;98612.50;;;10.05;65.58
16030;BME280;34770;49.272;11.070;2023-05-03T06:43:05;98608.34;;;10.12;65.44
16030;BME280;34770;49.272;11.070;2023-05-03T06:45:30;98598.72;;;10.20;65.76
16030;BME280;34770;49.272;11.070;2023-05-03T06:47:56;98609.31;;;10.23;64.39
16030;BME280;34770;49.272;11.070;2023-05-03T06:50:21;98608.56;;;10.45;64.44
16030;BME280;34770;49.272;11.070;2023-05-03T06:52:48;98614.84;;;10.69;64.39
16030;BME280;34770;49.272;11.070;2023-05-03T06:55:14;98611.78;;;10.74;64.40
16030;BME280;34770;49.272;11.070;2023-05-03T06:57:40;98607.03;;;10.88;64.52
16030;BME280;34770;49.272;11.070;2023-05-03T07:00:07;98606.06;;;11.00;63.70
16030;BME280;34770;49.272;11.070;2023-05-03T07:02:33;98606.50;;;11.18;63.71
16030;BME280;34770;49.272;11.070;2023-05-03T07:04:58;98601.44;;;11.25;63.08
16030;BME280;34770;49.272;11.070;2023-05-03T07:07:23;98581.66;;;11.00;63.23
16030;BME280;34770;49.272;11.070;2023-05-03T07:09:49;98595.88;;;11.15;63.11
16030;BME280;34770;49.272;11.070;2023-05-03T07:12:14;98605.88;;;11.37;62.47
16030;BME280;34770;49.272;11.070;2023-05-03T07:14:40;98601.00;;;11.53;62.69
16030;BME280;34770;49.272;11.070;2023-05-03T07:17:06;98594.72;;;11.75;62.00
16030;BME280;34770;49.272;11.070;2023-05-03T07:19:32;98587.41;;;11.42;61.78
16030;BME280;34770;49.272;11.070;2023-05-03T07:21:57;98588.69;;;11.71;61.99
16030;BME280;34770;49.272;11.070;2023-05-03T07:24:23;98583.88;;;11.75;61.28
16030;BME280;34770;49.272;11.070;2023-05-03T07:26:52;98572.88;;;11.98;61.40
16030;BME280;34770;49.272;11.070;2023-05-03T07:29:17;98567.19;;;11.90;60.52
16030;BME280;34770;49.272;11.070;2023-05-03T07:31:42;98579.16;;;12.42;61.82
16030;BME280;34770;49.272;11.070;2023-05-03T07:34:09;98572.97;;;12.51;59.63
16030;BME280;34770;49.272;11.070;2023-05-03T07:36:34;98554.50;;;12.86;59.79
16030;BME280;34770;49.272;11.070;2023-05-03T07:39:00;98565.28;;;13.08;60.10
16030;BME280;34770;49.272;11.070;2023-05-03T07:41:25;98560.06;;;13.16;58.69
16030;BME280;34770;49.272;11.070;2023-05-03T07:43:50;98562.09;;;12.83;58.58
16030;BME280;34770;49.272;11.070;2023-05-03T07:46:16;98563.63;;;13.17;58.44
16030;BME280;34770;49.272;11.070;2023-05-03T07:48:41;98565.28;;;13.59;57.73
16030;BME280;34770;49.272;11.070;2023-05-03T07:51:07;98549.50;;;13.53;57.61
16030;BME280;34770;49.272;11.070;2023-05-03T07:53:32;98542.94;;;13.56;57.59
16030;BME280;34770;49.272;11.070;2023-05-03T07:55:59;98527.59;;;13.64;57.17
16030;BME280;34770;49.272;11.070;2023-05-03T07:58:25;98556.72;;;14.13;55.96
16030;BME280;34770;49.272;11.070;2023-05-03T08:00:50;98545.47;;;13.78;55.16
16030;BME280;34770;49.272;11.070;2023-05-03T08:03:16;98544.38;;;13.29;56.92
16030;BME280;34770;49.272;11.070;2023-05-03T08:05:42;98548.34;;;13.25;56.36
16030;BME280;34770;49.272;11.070;2023-05-03T08:08:08;98548.03;;;13.79;56.92
16030;BME280;34770;49.272;11.070;2023-05-03T08:10:34;98541.97;;;14.16;57.16
16030;BME280;34770;49.272;11.070;2023-05-03T08:13:03;98549.94;;;14.47;55.50
16030;BME280;34770;49.272;11.070;2023-05-03T08:15:29;98537.72;;;14.51;55.22
16030;BME280;34770;49.272;11.070;2023-05-03T08:17:55;98544.63;;;14.75;54.28
16030;BME280;34770;49.272;11.070;2023-05-03T08:20:20;98546.72;;;15.29;54.56
16030;BME280;34770;49.272;11.070;2023-05-03T08:22:46;98539.75;;;14.78;53.01
16030;BME280;34770;49.272;11.070;2023-05-03T08:25:11;98534.94;;;14.13;54.61
16030;BME280;34770;49.272;11.070;2023-05-03T08:27:37;98537.88;;;14.98;54.75
16030;BME280;34770;49.272;11.070;2023-05-03T08:30:03;98548.88;;;15.35;53.13
16030;BME280;34770;49.272;11.070;2023-05-03T08:32:29;98542.38;;;15.45;51.77
16030;BME280;34770;49.272;11.070;2023-05-03T08:34:55;98538.47;;;14.63;52.28
16030;BME280;34770;49.272;11.070;2023-05-03T08:37:21;98544.19;;;14.89;54.56
16030;BME280;34770;49.272;11.070;2023-05-03T08:39:47;98549.72;;;15.54;52.90
16030;BME280;34770;49.272;11.070;2023-05-03T08:42:12;98544.44;;;16.07;51.70
16030;BME280;34770;49.272;11.070;2023-05-03T08:44:47;98546.34;;;16.69;51.35
16030;BME280;34770;49.272;11.070;2023-05-03T08:47:13;98546.00;;;16.90;47.94
16030;BME280;34770;49.272;11.070;2023-05-03T08:49:41;98541.63;;;17.15;47.78
16030;BME280;34770;49.272;11.070;2023-05-03T08:52:13;98545.03;;;17.34;46.89
16030;BME280;34770;49.272;11.070;2023-05-03T08:54:38;98540.47;;;17.00;48.00
16030;BME280;34770;49.272;11.070;2023-05-03T08:57:09;98540.81;;;15.33;50.26
16030;BME280;34770;49.272;11.070;2023-05-03T08:59:53;98530.03;;;15.78;50.89
16030;BME280;34770;49.272;11.070;2023-05-03T09:02:22;98545.09;;;16.19;51.30
16030;BME280;34770;49.272;11.070;2023-05-03T09:04:48;98543.56;;;16.52;50.83
16030;BME280;34770;49.272;11.070;2023-05-03T09:07:13;98550.34;;;16.30;49.57
16030;BME280;34770;49.272;11.070;2023-05-03T09:09:42;98554.22;;;16.55;49.50
16030;BME280;34770;49.272;11.070;2023-05-03T09:12:08;98552.59;;;16.79;47.91
16030;BME280;34770;49.272;11.070;2023-05-03T09:14:41;98554.25;;;16.72;49.03
16030;BME280;34770;49.272;11.070;2023-05-03T09:17:16;98549.91;;;16.88;47.63
16030;BME280;34770;49.272;11.070;2023-05-03T09:19:58;98549.03;;;17.22;48.21
16030;BME280;34770;49.272;11.070;2023-05-03T09:22:29;98546.88;;;16.91;47.90
16030;BME280;34770;49.272;11.070;2023-05-03T09:24:59;98530.88;;;17.47;48.30
16030;BME280;34770;49.272;11.070;2023-05-03T09:27:25;98549.47;;;17.35;47.35
16030;BME280;34770;49.272;11.070;2023-05-03T09:29:54;98553.41;;;17.15;47.31
16030;BME280;34770;49.272;11.070;2023-05-03T09:32:19;98559.00;;;17.75;46.57
16030;BME280;34770;49.272;11.070;2023-05-03T09:34:49;98535.72;;;17.27;45.31
16030;BME280;34770;49.272;11.070;2023-05-03T09:37:35;98546.09;;;17.42;47.81
16030;BME280;34770;49.272;11.070;2023-05-03T09:40:04;98544.25;;;17.50;44.94
16030;BME280;34770;49.272;11.070;2023-05-03T09:42:31;98541.34;;;17.52;46.53
16030;BME280;34770;49.272;11.070;2023-05-03T09:44:57;98537.28;;;16.69;47.41
16030;BME280;34770;49.272;11.070;2023-05-03T09:47:22;98539.16;;;16.86;47.98
16030;BME280;34770;49.272;11.070;2023-05-03T09:49:49;98533.28;;;16.81;47.50
16030;BME280;34770;49.272;11.070;2023-05-03T09:52:15;98496.56;;;15.66;48.29
16030;BME280;34770;49.272;11.070;2023-05-03T09:54:41;98534.78;;;16.31;49.54
16030;BME280;34770;49.272;11.070;2023-05-03T09:57:07;98543.22;;;16.37;49.22
16030;BME280;34770;49.272;11.070;2023-05-03T09:59:34;98541.63;;;16.17;49.53
16030;BME280;34770;49.272;11.070;2023-05-03T10:02:02;98541.78;;;16.15;49.71
16030;BME280;34770;49.272;11.070;2023-05-03T10:04:30;98530.34;;;16.47;49.07
16030;BME280;34770;49.272;11.070;2023-05-03T10:07:03;98520.59;;;16.98;47.08
16030;BME280;34770;49.272;11.070;2023-05-03T10:09:38;98533.41;;;17.66;48.02
16030;BME280;34770;49.272;11.070;2023-05-03T10:12:06;98518.84;;;18.00;45.01
16030;BME280;34770;49.272;11.070;2023-05-03T10:14:32;98516.34;;;18.22;45.52
16030;BME280;34770;49.272;11.070;2023-05-03T10:17:23;98521.50;;;18.99;43.30
16030;BME280;34770;49.272;11.070;2023-05-03T10:20:32;98514.19;;;17.92;43.94
16030;BME280;34770;49.272;11.070;2023-05-03T10:23:10;98520.59;;;18.09;45.28
16030;BME280;34770;49.272;11.070;2023-05-03T10:25:37;98515.72;;;17.86;45.39
16030;BME280;34770;49.272;11.070;2023-05-03T10:28:05;98493.38;;;17.22;45.48
16030;BME280;34770;49.272;11.070;2023-05-03T10:30:38;98521.69;;;17.30;46.62
16030;BME280;34770;49.272;11.070;2023-05-03T10:33:30;98519.78;;;16.35;47.20
16030;BME280;34770;49.272;11.070;2023-05-03T10:35:57;98496.34;;;16.32;47.53
16030;BME280;34770;49.272;11.070;2023-05-03T10:38:27;98497.44;;;17.18;47.33
16030;BME280;34770;49.272;11.070;2023-05-03T10:40:54;98501.41;;;17.49;46.02
16030;BME280;34770;49.272;11.070;2023-05-03T10:46:00;98505.34;;;17.21;46.77
16030;BME280;34770;49.272;11.070;2023-05-03T10:48:28;98485.97;;;17.14;46.86
16030;BME280;34770;49.272;11.070;2023-05-03T10:50:55;98496.97;;;18.08;45.74
16030;BME280;34770;49.272;11.070;2023-05-03T10:53:37;98499.13;;;17.54;44.32
16030;BME280;34770;49.272;11.070;2023-05-03T10:56:08;98483.34;;;17.90;44.70
16030;BME280;34770;49.272;11.070;2023-05-03T10:58:42;98495.59;;;18.94;43.42
16030;BME280;34770;49.272;11.070;2023-05-03T11:01:09;98479.91;;;19.35;43.31
16030;BME280;34770;49.272;11.070;2023-05-03T11:06:07;98479.56;;;19.38;42.03
16030;BME280;34770;49.272;11.070;2023-05-03T11:08:32;98491.13;;;19.88;41.83
16030;BME280;34770;49.272;11.070;2023-05-03T11:11:02;98489.94;;;20.21;40.69
16030;BME280;34770;49.272;11.070;2023-05-03T11:13:36;98480.44;;;19.93;39.55
16030;BME280;34770;49.272;11.070;2023-05-03T11:16:02;98483.53;;;19.43;40.45
16030;BME280;34770;49.272;11.070;2023-05-03T11:18:29;98485.50;;;20.20;40.14
16030;BME280;34770;49.272;11.070;2023-05-03T11:20:56;98477.97;;;20.45;40.27
16030;BME280;34770;49.272;11.070;2023-05-03T11:23:30;98479.09;;;20.59;38.29
16030;BME280;34770;49.272;11.070;2023-05-03T11:25:55;98477.31;;;18.44;41.00
16030;BME280;34770;49.272;11.070;2023-05-03T11:28:26;98476.81;;;19.30;39.99
16030;BME280;34770;49.272;11.070;2023-05-03T11:30:52;98470.03;;;19.81;38.87
16030;BME280;34770;49.272;11.070;2023-05-03T11:33:17;98461.25;;;20.92;40.50
16030;BME280;34770;49.272;11.070;2023-05-03T11:35:43;98471.31;;;20.62;38.71
16030;BME280;34770;49.272;11.070;2023-05-03T11:38:08;98476.66;;;20.33;38.97
16030;BME280;34770;49.272;11.070;2023-05-03T11:40:34;98434.41;;;20.26;39.04
16030;BME280;34770;49.272;11.070;2023-05-03T11:43:01;98467.19;;;19.97;39.47
16030;BME280;34770;49.272;11.070;2023-05-03T11:48:05;98471.22;;;18.83;40.70
16030;BME280;34770;49.272;11.070;2023-05-03T11:50:50;98471.53;;;19.04;42.94
16030;BME280;34770;49.272;11.070;2023-05-03T11:53:17;98458.00;;;20.12;39.96
16030;BME280;34770;49.272;11.070;2023-05-03T11:55:45;98459.13;;;20.79;37.68
16030;BME280;34770;49.272;11.070;2023-05-03T11:58:19;98453.59;;;21.39;36.66
16030;BME280;34770;49.272;11.070;2023-05-03T12:00:49;98459.53;;;21.80;36.99
16030;BME280;34770;49.272;11.070;2023-05-03T12:03:28;98451.44;;;21.50;36.35
16030;BME280;34770;49.272;11.070;2023-05-03T12:05:55;98445.91;;;21.79;35.20
16030;BME280;34770;49.272;11.070;2023-05-03T12:08:26;98463.59;;;21.70;35.15
16030;BME280;34770;49.272;11.070;2023-05-03T12:10:52;98438.34;;;22.31;33.08
16030;BME280;34770;49.272;11.070;2023-05-03T12:13:29;98446.28;;;21.76;32.53
16030;BME280;34770;49.272;11.070;2023-05-03T12:15:58;98430.84;;;22.25;33.69
16030;BME280;34770;49.272;11.070;2023-05-03T12:18:25;98448.66;;;22.80;34.34
16030;BME280;34770;49.272;11.070;2023-05-03T12:20:56;98431.19;;;22.37;33.89
16030;BME280;34770;49.272;11.070;2023-05-03T12:23:23;98432.38;;;20.88;33.93
16030;BME280;34770;49.272;11.070;2023-05-03T12:25:48;98445.22;;;21.18;35.71
16030;BME280;34770;49.272;11.070;2023-05-03T12:28:14;98436.53;;;20.61;36.26
16030;BME280;34770;49.272;11.070;2023-05-03T12:30:41;98435.13;;;20.12;37.47
16030;BME280;34770;49.272;11.070;2023-05-03T12:33:07;98409.94;;;19.61;37.09
16030;BME280;34770;49.272;11.070;2023-05-03T12:35:32;98418.84;;;19.08;37.29
16030;BME280;34770;49.272;11.070;2023-05-03T12:37:58;98442.00;;;19.06;38.70
16030;BME280;34770;49.272;11.070;2023-05-03T12:40:23;98433.88;;;19.29;38.65
16030;BME280;34770;49.272;11.070;2023-05-03T12:42:52;98428.28;;;18.98;37.13
16030;BME280;34770;49.272;11.070;2023-05-03T12:45:18;98433.22;;;18.38;39.07
16030;BME280;34770;49.272;11.070;2023-05-03T12:47:43;98424.16;;;18.70;36.85
16030;BME280;34770;49.272;11.070;2023-05-03T12:50:09;98403.28;;;19.32;35.28
16030;BME280;34770;49.272;11.070;2023-05-03T12:52:35;98404.91;;;19.65;36.71
16030;BME280;34770;49.272;11.070;2023-05-03T12:55:02;98402.97;;;19.82;38.74
16030;BME280;34770;49.272;11.070;2023-05-03T12:57:28;98412.81;;;19.68;36.62
16030;BME280;34770;49.272;11.070;2023-05-03T12:59:53;98418.00;;;18.76;38.53
16030;BME280;34770;49.272;11.070;2023-05-03T13:02:20;98413.88;;;18.88;39.40
16030;BME280;34770;49.272;11.070;2023-05-03T13:04:46;98401.97;;;20.05;38.83